Time;durP1;ratioP1;P1;durP2;ratioP2;P2;SDS_P1;SDS_P2;PMS_P1;PMS_P2;Temp;Humidity;BMP_temperature;BMP_pressure;BME280_temperature;BME280_humidity;BME280_pressure;Samples;Min_cycle;Max_cycle;Signal;HPM_P1;HPM_P2
2022/12/19 00:01:39;;;;;;;11.77;9.73;;;24.50;36.60;;;-142.21;30.15;112049.66;5052642;28;20264;-80
2022/12/19 00:04:11;;;;;;;13.47;10.13;;;24.50;36.60;;;-142.21;29.87;112049.66;5051450;28;20634;-81
2022/12/19 00:06:39;;;;;;;11.30;9.73;;;24.50;36.70;;;-142.21;30.20;112049.66;5052553;28;20415;-82
2022/12/19 00:09:07;;;;;;;13.10;10.20;;;24.50;36.60;;;-142.21;29.89;112049.66;5051893;28;20200;-80
2022/12/19 00:11:34;;;;;;;12.33;9.97;;;24.50;36.60;;;-142.21;29.99;112049.66;5052367;28;20228;-79
2022/12/19 00:14:03;;;;;;;15.03;10.80;;;24.50;36.60;;;-142.21;29.94;112049.66;5052057;28;20231;-81
2022/12/19 00:16:31;;;;;;;11.37;9.90;;;24.50;36.70;;;-142.21;30.04;112049.66;5052557;28;20278;-81
2022/12/19 00:19:01;;;;;;;13.17;10.67;;;24.50;36.60;;;-142.21;30.10;112049.66;5051595;28;20471;-82
2022/12/19 00:21:31;;;;;;;11.90;9.63;;;24.50;36.70;;;-142.21;30.06;112049.66;5052777;28;20219;-81
2022/12/19 00:23:58;;;;;;;12.47;10.37;;;24.50;36.60;;;-142.21;29.82;112049.66;5052895;28;20216;-82
2022/12/19 00:26:28;;;;;;;11.57;9.83;;;24.50;36.60;;;-142.21;30.18;112049.66;5053908;28;20288;-82
2022/12/19 00:28:58;;;;;;;11.87;9.63;;;24.40;36.60;;;-142.21;30.16;112049.66;5056092;28;20211;-80
2022/12/19 00:31:32;;;;;;;10.77;9.63;;;24.40;36.60;;;-142.21;29.91;112049.66;5058056;28;20296;-80
2022/12/19 00:34:00;;;;;;;11.20;9.83;;;24.40;37.20;;;-142.21;29.95;112049.66;5055664;28;20241;-83
2022/12/19 00:36:30;;;;;;;12.00;10.00;;;24.40;36.60;;;-142.21;30.12;112049.66;5056127;28;20229;-80
2022/12/19 00:39:00;;;;;;;11.33;10.03;;;24.40;36.60;;;-142.21;30.29;112049.66;5055642;28;20231;-82
2022/12/19 00:41:29;;;;;;;11.93;9.77;;;24.40;36.60;;;-142.21;30.11;112049.66;5055904;28;20581;-82
2022/12/19 00:43:59;;;;;;;11.90;9.90;;;24.50;36.60;;;-142.21;29.90;112049.66;5055783;28;20223;-80
2022/12/19 00:46:31;;;;;;;11.27;10.07;;;24.40;36.60;;;-142.21;30.07;112049.66;5056133;28;20628;-81
2022/12/19 00:48:59;;;;;;;12.77;11.00;;;24.50;36.60;;;-142.21;29.86;112049.66;5055530;28;20233;-82
2022/12/19 00:51:30;;;;;;;11.17;9.53;;;24.50;36.60;;;-142.21;29.82;112049.66;5056251;28;20296;-82
2022/12/19 00:53:58;;;;;;;10.97;9.77;;;24.50;36.60;;;-142.21;30.12;112049.66;5055588;28;20190;-82
2022/12/19 00:56:29;;;;;;;11.60;9.53;;;24.50;36.60;;;-142.21;30.08;112049.66;5055870;28;20293;-82
2022/12/19 00:58:57;;;;;;;12.70;10.33;;;24.50;36.60;;;-142.21;30.04;112049.66;5055759;28;20205;-82
2022/12/19 01:01:30;;;;;;;10.60;9.43;;;24.50;36.60;;;-142.21;30.02;112049.66;5055857;28;20288;-82
2022/12/19 01:03:59;;;;;;;11.67;9.37;;;24.40;36.60;;;-142.21;30.19;112049.66;5055256;28;20548;-82
2022/12/19 01:06:27;;;;;;;11.13;9.67;;;24.40;36.60;;;-142.21;30.06;112049.66;5061852;28;20623;-82
2022/12/19 01:08:54;;;;;;;12.07;10.00;;;24.50;36.60;;;-142.21;29.85;112049.66;5095941;28;20257;-81
2022/12/19 01:12:44;;;;;;;11.30;9.83;;;24.50;36.50;;;-142.21;29.98;112049.66;5066533;28;20212;-82
2022/12/19 01:14:10;;;;;;;11.40;9.33;;;24.50;36.50;;;-142.21;29.99;112049.66;5055937;28;20215;-80
2022/12/19 01:16:39;;;;;;;11.87;9.83;;;24.50;36.60;;;-142.21;29.93;112049.66;5056185;28;20562;-81
2022/12/19 01:19:07;;;;;;;10.03;9.03;;;24.40;36.50;;;-142.21;30.23;112049.66;5055236;28;20215;-79
2022/12/19 01:21:36;;;;;;;10.70;9.60;;;24.50;36.40;;;-142.21;29.82;112049.66;5055256;28;20669;-82
2022/12/19 01:24:05;;;;;;;9.50;8.50;;;24.50;36.60;;;-142.21;30.08;112049.66;5054903;28;20205;-80
2022/12/19 01:26:32;;;;;;;12.07;9.93;;;24.50;36.50;;;-142.21;29.82;112049.66;5055317;28;20255;-81
2022/12/19 01:28:59;;;;;;;10.30;9.03;;;24.50;36.40;;;-142.21;30.03;112049.66;5054836;28;20196;-81
2022/12/19 01:31:27;;;;;;;11.07;9.40;;;24.50;36.40;;;-142.21;29.92;112049.66;5056991;28;20301;-80
2022/12/19 01:33:56;;;;;;;11.20;9.67;;;24.50;36.40;;;-142.21;30.08;112049.66;5074533;28;20256;-80
2022/12/19 01:36:23;;;;;;;10.87;9.20;;;24.50;36.40;;;-142.21;29.88;112049.66;5075369;28;20223;-80
2022/12/19 01:38:50;;;;;;;10.17;8.70;;;24.50;36.40;;;-142.21;29.81;112049.66;5074880;28;20237;-80
2022/12/19 01:41:17;;;;;;;10.50;9.33;;;24.40;36.30;;;-142.21;29.96;112049.66;5074594;28;20661;-79
2022/12/19 01:43:59;;;;;;;11.20;9.70;;;24.50;36.40;;;-142.21;29.83;112049.66;5075166;28;20221;-81
2022/12/19 01:46:32;;;;;;;10.37;9.27;;;24.50;36.50;;;-142.21;29.97;112049.66;5074863;28;20268;-79
2022/12/19 01:49:02;;;;;;;10.53;9.37;;;24.40;36.40;;;-142.21;30.12;112049.66;5074579;28;20205;-80
2022/12/19 01:51:39;;;;;;;12.00;9.37;;;24.40;36.40;;;-142.21;29.95;112049.66;5075562;28;20288;-80
2022/12/19 01:54:13;;;;;;;9.97;8.73;;;24.40;36.40;;;-142.21;29.79;112049.66;5074680;28;20213;-80
2022/12/19 01:56:48;;;;;;;11.73;9.43;;;24.40;36.40;;;-142.21;30.05;112049.66;5075300;28;20295;-81
2022/12/19 01:59:21;;;;;;;10.53;9.40;;;24.40;36.40;;;-142.21;29.87;112049.66;5074620;28;20629;-80
2022/12/19 02:01:48;;;;;;;10.60;9.07;;;24.50;36.50;;;-142.21;29.88;112049.66;5074652;28;20204;-80
2022/12/19 02:04:17;;;;;;;9.33;8.37;;;24.40;36.40;;;-142.21;29.71;112049.66;5073548;28;20267;-81
2022/12/19 02:06:44;;;;;;;10.47;9.20;;;24.40;36.30;;;-142.21;30.06;112049.66;5075044;28;20221;-80
2022/12/19 02:09:12;;;;;;;8.87;8.00;;;24.40;36.30;;;-142.21;29.94;112049.66;5063089;28;20208;-81
2022/12/19 02:11:40;;;;;;;10.17;9.10;;;24.40;36.40;;;-142.21;30.00;112049.66;5054809;28;20614;-80
2022/12/19 02:14:07;;;;;;;10.13;9.03;;;24.40;36.30;;;-142.21;30.09;112049.66;5053061;28;20335;-81
2022/12/19 02:16:52;;;;;;;9.83;8.83;;;24.50;36.40;;;-142.21;29.80;112049.66;5054653;28;20228;-80
2022/12/19 02:20:09;;;;;;;9.10;7.90;;;24.40;36.40;;;-142.21;29.75;112049.66;5065909;28;20296;-81
2022/12/19 02:23:00;;;;;;;9.50;8.47;;;24.40;36.40;;;-142.21;29.99;112049.66;5074449;28;20270;-80
2022/12/19 02:26:15;;;;;;;10.07;8.47;;;24.50;36.40;;;-142.21;30.09;112049.66;5074346;28;20276;-81
2022/12/19 02:29:10;;;;;;;11.03;8.33;;;24.50;36.40;;;-142.21;29.82;112049.66;5073750;28;20297;-82
2022/12/19 02:31:48;;;;;;;9.50;8.00;;;24.50;36.40;;;-142.21;30.02;112049.66;5074207;28;20221;-81
2022/12/19 02:34:29;;;;;;;10.20;8.67;;;24.40;36.30;;;-142.21;29.95;112049.66;5074028;28;20211;-80
2022/12/19 02:37:02;;;;;;;9.53;8.53;;;24.40;36.40;;;-142.21;30.17;112049.66;5073493;28;20227;-82
2022/12/19 02:39:40;;;;;;;9.47;8.17;;;24.50;36.50;;;-142.21;30.04;112049.66;5073807;28;20277;-79
2022/12/19 02:42:14;;;;;;;8.97;8.07;;;24.50;36.40;;;-142.21;29.95;112049.66;5073279;28;20209;-80
2022/12/19 02:44:46;;;;;;;8.87;7.93;;;24.50;36.40;;;-142.21;29.97;112049.66;5073681;28;20384;-79
2022/12/19 02:47:19;;;;;;;9.00;8.10;;;24.50;36.40;;;-142.21;30.08;112049.66;5073214;28;20250;-82
2022/12/19 02:49:46;;;;;;;8.80;7.83;;;24.50;36.40;;;-142.21;30.00;112049.66;5073103;28;20563;-80
2022/12/19 02:52:43;;;;;;;8.30;7.50;;;24.40;36.20;;;-142.21;29.79;112049.66;5072938;28;20208;-81
2022/12/19 02:55:20;;;;;;;8.97;8.07;;;24.50;36.40;;;-142.21;29.77;112049.66;5073101;28;20214;-80
2022/12/19 02:58:23;;;;;;;9.77;8.77;;;24.50;36.40;;;-142.21;29.68;112049.66;5071525;28;20242;-81
2022/12/19 03:01:00;;;;;;;9.70;8.70;;;24.40;36.40;;;-142.21;29.82;112049.66;5073894;28;20231;-80
2022/12/19 03:03:47;;;;;;;9.03;8.03;;;24.50;36.40;;;-142.21;30.10;112049.66;5073671;28;20185;-82
2022/12/19 03:06:25;;;;;;;8.87;7.97;;;24.40;36.40;;;-142.21;29.91;112049.66;5072957;28;20206;-81
2022/12/19 03:09:03;;;;;;;9.20;8.30;;;24.50;36.40;;;-142.21;29.89;112049.66;5073202;28;20219;-82
2022/12/19 03:11:35;;;;;;;9.33;8.43;;;24.50;36.40;;;-142.21;29.55;112049.66;5073233;28;20316;-80
2022/12/19 03:14:08;;;;;;;9.03;8.13;;;24.50;36.40;;;-142.21;29.75;112049.66;5072725;28;20189;-80
2022/12/19 03:16:36;;;;;;;9.50;7.73;;;24.50;36.40;;;-142.21;29.91;112049.66;5073117;28;20616;-81
2022/12/19 03:19:09;;;;;;;8.83;7.93;;;24.50;36.40;;;-142.21;30.04;112049.66;5072466;28;20267;-80
2022/12/19 03:21:40;;;;;;;8.47;7.57;;;24.50;36.40;;;-142.21;29.66;112049.66;5073158;28;20291;-81
2022/12/19 03:24:10;;;;;;;8.43;7.60;;;24.50;36.40;;;-142.21;29.87;112049.66;5072708;28;20308;-81
2022/12/19 03:26:44;;;;;;;9.30;8.03;;;24.50;36.40;;;-142.21;30.04;112049.66;5072691;28;20276;-82
2022/12/19 03:29:21;;;;;;;8.63;7.73;;;24.50;36.40;;;-142.21;29.74;112049.66;5072272;28;20235;-82
2022/12/19 03:31:48;;;;;;;7.63;6.83;;;24.50;36.40;;;-142.21;30.02;112049.66;5073250;28;20200;-82
2022/12/19 03:34:24;;;;;;;8.40;7.60;;;24.50;36.30;;;-142.21;29.86;112049.66;5072486;28;20239;-81
2022/12/19 03:36:59;;;;;;;8.80;7.87;;;24.50;36.40;;;-142.21;30.13;112049.66;5073095;28;20250;-81
2022/12/19 03:39:30;;;;;;;9.20;8.30;;;24.50;36.40;;;-142.21;29.79;112049.66;5072606;28;20207;-81
2022/12/19 03:44:46;;;;;;;9.17;8.20;;;24.50;36.50;;;-142.21;29.99;112049.66;5072543;28;20333;-81
2022/12/19 03:47:21;;;;;;;8.00;7.20;;;24.40;36.40;;;-142.21;29.80;112049.66;5072451;28;20204;-81
2022/12/19 03:49:50;;;;;;;8.10;7.30;;;24.50;36.50;;;-142.21;30.02;112049.66;5072778;28;20644;-81
2022/12/19 03:52:29;;;;;;;8.57;7.70;;;24.50;36.40;;;-142.21;29.92;112049.66;5071917;28;20267;-83
2022/12/19 03:55:09;;;;;;;7.90;6.90;;;24.50;36.40;;;-142.21;29.64;112049.66;5072532;28;20185;-82
2022/12/19 03:57:46;;;;;;;7.67;6.87;;;24.50;36.40;;;-142.21;30.06;112049.66;5072819;28;20207;-83
2022/12/19 04:00:17;;;;;;;8.37;7.57;;;24.50;36.40;;;-142.21;29.98;112049.66;5072099;28;20309;-82
2022/12/19 04:02:51;;;;;;;8.00;7.20;;;24.50;36.40;;;-142.21;30.15;112049.66;5072807;28;20220;-82
2022/12/19 04:05:25;;;;;;;7.87;7.07;;;24.50;36.40;;;-142.21;29.87;112049.66;5071942;28;20332;-84
2022/12/19 04:07:58;;;;;;;8.43;7.63;;;24.50;36.40;;;-142.21;30.11;112049.66;5072561;28;20296;-80
2022/12/19 04:10:28;;;;;;;8.10;7.30;;;24.50;36.40;;;-142.21;30.17;112049.66;5072116;28;20630;-82
2022/12/19 04:13:02;;;;;;;7.50;6.80;;;24.50;36.40;;;-142.21;29.99;112049.66;5072578;28;20264;-82
2022/12/19 04:15:42;;;;;;;8.17;7.10;;;24.50;36.40;;;-142.21;29.90;112049.66;5073123;28;20193;-82
2022/12/19 04:18:13;;;;;;;7.37;6.67;;;24.50;36.40;;;-142.21;29.85;112049.66;5072068;28;20197;-82
2022/12/19 04:20:52;;;;;;;7.60;6.90;;;24.50;36.40;;;-142.21;30.13;112049.66;5073133;28;20368;-82
2022/12/19 04:23:28;;;;;;;8.33;7.47;;;24.50;36.40;;;-142.21;30.00;112049.66;5071760;28;20220;-82
2022/12/19 04:26:03;;;;;;;8.27;7.40;;;24.50;36.40;;;-142.21;29.87;112049.66;5053816;28;20216;-82
2022/12/19 04:28:38;;;;;;;8.10;7.30;;;24.50;36.40;;;-142.21;29.97;112049.66;5073616;28;20644;-82
2022/12/19 04:31:08;;;;;;;8.67;7.77;;;24.50;36.40;;;-142.21;29.98;112049.66;5072046;28;20200;-82
2022/12/19 04:33:35;;;;;;;7.80;7.00;;;24.50;36.40;;;-142.21;29.85;112049.66;5072291;28;20316;-82
2022/12/19 04:36:07;;;;;;;9.03;7.40;;;24.50;36.40;;;-142.21;29.81;112049.66;5088509;28;20207;-82
2022/12/19 04:38:34;;;;;;;7.20;6.30;;;24.50;36.40;;;-142.21;29.93;112049.66;5088113;28;20253;-82
2022/12/19 04:41:01;;;;;;;8.00;7.20;;;24.50;36.30;;;-142.21;30.11;112049.66;5073682;28;20232;-79
2022/12/19 04:43:29;;;;;;;8.50;7.60;;;24.50;36.30;;;-142.21;29.82;112049.66;5073124;28;20288;-80
2022/12/19 04:45:56;;;;;;;7.20;6.50;;;24.50;36.30;;;-142.21;30.13;112049.66;5072337;28;20218;-81
2022/12/19 04:48:23;;;;;;;7.80;7.00;;;24.50;36.40;;;-142.21;30.07;112049.66;5060517;28;20270;-81
2022/12/19 04:50:50;;;;;;;7.53;6.83;;;24.50;36.30;;;-142.21;29.98;112049.66;5052358;28;20208;-79
2022/12/19 04:53:19;;;;;;;7.77;6.77;;;24.50;36.30;;;-142.21;30.04;112049.66;5051378;28;20240;-81
2022/12/19 04:55:46;;;;;;;7.73;6.93;;;24.50;36.40;;;-142.21;30.23;112049.66;5051948;28;20208;-81
2022/12/19 04:58:13;;;;;;;8.17;7.37;;;24.50;36.40;;;-142.21;29.97;112049.66;5051680;28;20564;-81
2022/12/19 05:00:40;;;;;;;7.10;6.40;;;24.50;36.50;;;-142.21;30.26;112049.66;5057520;28;20244;-82
2022/12/19 05:03:08;;;;;;;7.70;6.90;;;24.50;36.40;;;-142.21;29.71;112049.66;5071438;28;20198;-81
2022/12/19 05:05:35;;;;;;;8.30;7.50;;;24.50;36.40;;;-142.21;29.98;112049.66;5072072;28;20602;-82
2022/12/19 05:08:02;;;;;;;7.47;6.70;;;24.50;36.50;;;-142.21;30.41;112049.66;5069866;28;20225;-82
2022/12/19 05:10:31;;;;;;;7.57;6.87;;;24.50;36.50;;;-142.21;30.31;112049.66;5071858;28;20315;-80
2022/12/19 05:12:58;;;;;;;8.20;7.37;;;24.50;36.50;;;-142.21;30.16;112049.66;5074153;28;20194;-79
2022/12/19 05:15:25;;;;;;;8.10;6.90;;;24.50;36.50;;;-142.21;29.92;112049.66;5075267;28;20236;-81
2022/12/19 05:17:52;;;;;;;7.30;6.50;;;24.50;36.50;;;-142.21;29.93;112049.66;5075235;28;20282;-81
2022/12/19 05:20:19;;;;;;;7.50;6.67;;;24.60;36.50;;;-142.21;30.04;112049.66;5074939;28;20209;-81
2022/12/19 05:22:47;;;;;;;7.30;6.60;;;24.50;36.50;;;-142.21;30.27;112049.66;5075604;28;20287;-80
2022/12/19 05:25:15;;;;;;;7.60;6.87;;;24.50;36.60;;;-142.21;30.10;112049.66;5074931;28;20238;-81
2022/12/19 05:27:44;;;;;;;7.73;6.97;;;24.50;36.50;;;-142.21;29.97;112049.66;5075200;28;20295;-80
2022/12/19 05:30:12;;;;;;;7.40;6.70;;;24.60;36.60;;;-142.21;30.14;112049.66;5074718;28;20243;-81
2022/12/19 05:32:39;;;;;;;7.73;7.03;;;24.50;36.60;;;-142.21;30.11;112049.66;5075108;28;20200;-80
2022/12/19 05:35:07;;;;;;;7.00;6.40;;;24.60;36.60;;;-142.21;30.28;112049.66;5074951;28;20397;-80
2022/12/19 05:37:34;;;;;;;6.90;6.20;;;24.50;36.70;;;-142.21;29.99;112049.66;5074879;28;20263;-79
2022/12/19 05:40:02;;;;;;;7.27;6.57;;;24.50;36.60;;;-142.21;30.37;112049.66;5075014;28;20203;-79
2022/12/19 05:42:29;;;;;;;7.57;6.77;;;24.50;36.60;;;-142.21;30.29;112049.66;5075238;28;20240;-80
2022/12/19 05:44:57;;;;;;;7.80;7.00;;;24.60;36.60;;;-142.21;30.27;112049.66;5074987;28;20828;-80
2022/12/19 05:47:25;;;;;;;7.00;6.37;;;24.60;36.60;;;-142.21;30.20;112049.66;5074575;28;20288;-80
2022/12/19 05:49:52;;;;;;;8.00;7.20;;;24.60;36.60;;;-142.21;30.15;112049.66;5074580;28;20624;-80
2022/12/19 05:52:19;;;;;;;7.70;7.00;;;24.60;36.60;;;-142.21;30.10;112049.66;5074503;28;20228;-82
2022/12/19 05:54:46;;;;;;;7.73;7.03;;;24.60;36.60;;;-142.21;30.11;112049.66;5075090;28;20247;-81
2022/12/19 05:57:14;;;;;;;7.07;6.37;;;24.60;36.60;;;-142.21;30.09;112049.66;5074139;28;20304;-80
2022/12/19 05:59:41;;;;;;;7.20;6.50;;;24.60;36.60;;;-142.21;30.13;112049.66;5074725;28;20252;-80
2022/12/19 06:02:10;;;;;;;7.50;6.70;;;24.60;36.60;;;-142.21;30.16;112049.66;5056570;28;20205;-81
2022/12/19 06:04:37;;;;;;;6.80;6.17;;;24.60;36.60;;;-142.21;30.17;112049.66;5054133;28;20287;-79
2022/12/19 06:07:05;;;;;;;7.00;6.30;;;24.60;36.60;;;-142.21;30.19;112049.66;5054052;28;20225;-80
2022/12/19 06:09:32;;;;;;;7.43;6.70;;;24.60;36.60;;;-142.21;30.06;112049.66;5054526;28;20217;-80
2022/12/19 06:11:59;;;;;;;7.20;6.50;;;24.60;36.70;;;-142.21;30.42;112049.66;5070590;28;20611;-82
2022/12/19 06:14:27;;;;;;;6.27;5.67;;;24.60;36.60;;;-142.21;30.24;112049.66;5074008;28;20229;-81
2022/12/19 06:16:54;;;;;;;7.10;6.40;;;24.60;36.60;;;-142.21;30.26;112049.66;5074487;28;20265;-81
2022/12/19 06:19:22;;;;;;;7.20;6.50;;;24.60;36.60;;;-142.21;30.32;112049.66;5073765;28;20205;-81
2022/12/19 06:21:50;;;;;;;7.00;6.33;;;24.60;36.60;;;-142.21;29.90;112049.66;5069961;28;20598;-82
2022/12/19 06:24:17;;;;;;;7.23;6.53;;;24.60;36.60;;;-142.21;29.80;112049.66;5053899;28;20206;-80
2022/12/19 06:26:45;;;;;;;7.20;6.33;;;24.60;36.60;;;-142.21;30.02;112049.66;5054558;28;20285;-80
2022/12/19 06:29:12;;;;;;;6.60;6.00;;;24.60;36.80;;;-142.21;30.27;112049.66;5053865;28;20316;-82
2022/12/19 06:31:40;;;;;;;6.63;6.03;;;24.60;36.60;;;-142.21;29.87;112049.66;5070480;28;20254;-81
2022/12/19 06:34:08;;;;;;;7.23;6.53;;;24.60;36.60;;;-142.21;29.94;112049.66;5073420;28;20629;-83
2022/12/19 06:36:38;;;;;;;7.03;6.33;;;24.60;36.60;;;-142.21;30.34;112049.66;5074218;28;20295;-81
2022/12/19 06:39:05;;;;;;;7.17;6.47;;;24.60;36.70;;;-142.21;30.42;112049.66;5074042;28;20254;-81
2022/12/19 06:44:18;;;;;;;7.03;6.33;;;24.60;36.60;;;-142.21;29.97;112049.66;5073435;28;20230;-82
2022/12/19 06:46:45;;;;;;;7.17;6.47;;;24.50;36.60;;;-142.21;29.91;112049.66;5073901;28;20235;-82
2022/12/19 06:49:13;;;;;;;6.93;6.33;;;24.50;36.50;;;-142.21;30.19;112049.66;5072984;28;20313;-80
2022/12/19 06:51:41;;;;;;;6.70;6.07;;;24.50;36.60;;;-142.21;30.29;112049.66;5073809;28;20227;-82
2022/12/19 06:54:10;;;;;;;6.60;6.00;;;24.50;36.60;;;-142.21;30.30;112049.66;5073304;28;20636;-82
2022/12/19 06:56:40;;;;;;;6.67;6.07;;;24.50;36.60;;;-142.21;29.90;112049.66;5073997;28;20231;-84
2022/12/19 06:59:11;;;;;;;6.47;5.87;;;24.50;36.60;;;-142.21;29.78;112049.66;5074236;28;20204;-81
2022/12/19 07:01:58;;;;;;;6.70;6.10;;;24.50;36.60;;;-142.21;30.22;112049.66;5075029;28;20287;-85
2022/12/19 07:04:32;;;;;;;6.70;6.10;;;24.50;36.70;;;-142.21;30.09;112049.66;5073997;28;20599;-85
2022/12/19 07:07:01;;;;;;;6.23;5.63;;;24.50;36.70;;;-142.21;30.21;112049.66;5074414;28;20244;-85
2022/12/19 07:09:30;;;;;;;7.00;6.30;;;24.50;36.80;;;-142.21;30.38;112049.66;5074386;28;20637;-80
2022/12/19 07:11:57;;;;;;;7.07;6.37;;;24.50;36.90;;;-142.21;30.40;112049.66;5073591;28;20608;-83
2022/12/19 07:14:25;;;;;;;7.47;6.57;;;24.50;36.90;;;-142.21;30.50;112049.66;5074916;28;20219;-85
2022/12/19 07:16:55;;;;;;;8.10;6.70;;;24.50;37.10;;;-142.21;30.47;112049.66;5074280;28;20295;-85
2022/12/19 07:19:23;;;;;;;7.07;6.37;;;24.50;37.20;;;-142.21;30.84;112049.66;5074496;28;20291;-86
2022/12/19 07:21:50;;;;;;;7.30;6.60;;;24.50;37.30;;;-142.21;30.70;112049.66;5071460;28;20291;-87
2022/12/19 07:24:19;;;;;;;6.60;6.00;;;24.50;37.30;;;-142.21;30.53;112049.66;5055879;28;20206;-87
2022/12/19 07:26:47;;;;;;;7.40;6.40;;;24.50;37.30;;;-142.21;30.40;112049.66;5056702;28;20253;-88
2022/12/19 07:29:14;;;;;;;7.87;6.30;;;24.50;37.30;;;-142.21;30.89;112049.66;5055698;28;20268;-88
2022/12/19 07:31:42;;;;;;;6.57;5.87;;;24.50;37.40;;;-142.21;30.69;112049.66;5056213;28;20652;-88
2022/12/19 07:34:10;;;;;;;6.87;6.27;;;24.60;37.50;;;-142.21;30.63;112049.66;5055432;28;20258;-87
2022/12/19 07:36:37;;;;;;;7.17;6.47;;;24.50;37.50;;;-142.21;30.88;112049.66;5056052;28;20235;-88
2022/12/19 07:39:05;;;;;;;7.30;5.87;;;24.60;37.70;;;-142.21;31.03;112049.66;5057235;28;20219;-88
2022/12/19 07:41:37;;;;;;;7.33;6.10;;;24.60;37.60;;;-142.21;30.71;112049.66;5056904;28;20295;-87
2022/12/19 07:44:04;;;;;;;6.67;6.07;;;24.60;37.70;;;-142.21;30.69;112049.66;5057143;28;20309;-86
2022/12/19 07:46:32;;;;;;;7.13;5.93;;;24.60;37.60;;;-142.21;30.69;112049.66;5054633;28;20262;-82
2022/12/19 07:48:59;;;;;;;8.93;6.57;;;24.60;37.60;;;-142.21;30.85;112049.66;5054732;28;20293;-85
2022/12/19 07:51:27;;;;;;;6.97;6.27;;;24.60;37.60;;;-142.21;30.67;112049.66;5054919;28;20219;-88
2022/12/19 07:53:54;;;;;;;9.27;7.10;;;24.60;37.60;;;-142.21;30.58;112049.66;5055017;28;20213;-87
2022/12/19 07:56:22;;;;;;;9.20;6.40;;;24.60;37.60;;;-142.21;30.57;112049.66;5055489;28;20679;-88
2022/12/19 07:58:51;;;;;;;7.50;6.23;;;24.60;37.50;;;-142.21;30.75;112049.66;5055572;28;20293;-89
2022/12/19 08:01:19;;;;;;;6.87;6.20;;;24.60;37.50;;;-142.21;30.47;112049.66;5055483;28;20208;-87
2022/12/19 08:03:46;;;;;;;7.23;6.53;;;24.60;37.50;;;-142.21;30.93;112049.66;5066812;28;20206;-87
2022/12/19 08:06:14;;;;;;;6.77;6.07;;;24.60;37.40;;;-142.21;30.85;112049.66;5078064;28;20198;-87
2022/12/19 08:08:41;;;;;;;6.60;5.90;;;24.60;37.50;;;-142.21;30.51;112049.66;5077813;28;20186;-89
2022/12/19 08:11:11;;;;;;;6.80;5.80;;;24.60;37.40;;;-142.21;30.61;112049.66;5076832;28;20216;-87
2022/12/19 08:13:40;;;;;;;6.70;6.03;;;24.60;37.50;;;-142.21;30.70;112049.66;5055597;28;20292;-88
2022/12/19 08:16:09;;;;;;;8.60;6.40;;;24.60;37.50;;;-142.21;30.60;112049.66;5054988;28;20664;-88
2022/12/19 08:18:36;;;;;;;7.00;5.83;;;24.60;37.40;;;-142.21;30.84;112049.66;5054618;28;20235;-87
2022/12/19 08:21:04;;;;;;;6.53;5.93;;;24.60;37.40;;;-142.21;30.78;112049.66;5054350;28;20225;-88
2022/12/19 08:23:33;;;;;;;7.63;5.67;;;24.60;37.40;;;-142.21;30.57;112049.66;5054689;28;20209;-89
2022/12/19 08:26:02;;;;;;;7.00;6.30;;;24.60;37.40;;;-142.21;30.34;112049.66;5054334;28;20212;-88
2022/12/19 08:28:30;;;;;;;6.70;6.10;;;24.60;37.30;;;-142.21;30.79;112049.66;5054608;28;20237;-88
2022/12/19 08:30:58;;;;;;;6.37;5.73;;;24.60;37.30;;;-142.21;30.58;112049.66;5054270;28;20275;-88
2022/12/19 08:33:27;;;;;;;6.40;5.80;;;24.70;37.30;;;-142.21;30.39;112049.66;5054469;28;20205;-87
2022/12/19 08:35:54;;;;;;;6.60;6.00;;;24.60;37.20;;;-142.21;30.75;112049.66;5054488;28;20208;-89
2022/12/19 08:38:22;;;;;;;6.40;5.80;;;24.60;37.20;;;-142.21;30.73;112049.66;5054541;28;20233;-88
2022/12/19 08:40:53;;;;;;;6.13;5.53;;;24.60;37.20;;;-142.21;30.45;112049.66;5054670;28;20247;-86
2022/12/19 08:43:21;;;;;;;6.20;5.60;;;24.60;37.30;;;-142.21;30.36;112049.66;5054811;28;20239;-86
2022/12/19 08:45:49;;;;;;;7.07;5.97;;;24.60;37.20;;;-142.21;30.57;112049.66;5054342;28;20232;-88
2022/12/19 08:48:17;;;;;;;6.23;5.63;;;24.60;37.20;;;-142.21;30.42;112049.66;5057117;28;20228;-88
2022/12/19 08:50:55;;;;;;;6.17;5.57;;;24.60;37.20;;;-142.21;30.74;112049.66;5057613;28;20689;-88
2022/12/19 08:53:24;;;;;;;6.17;5.43;;;24.70;37.30;;;-142.21;30.63;112049.66;5058738;28;20214;-87
2022/12/19 08:55:56;;;;;;;6.07;5.30;;;24.60;37.20;;;-142.21;30.58;112049.66;5059097;28;20222;-88
2022/12/19 08:58:23;;;;;;;6.07;5.47;;;24.60;37.20;;;-142.21;30.32;112049.66;5058406;28;20641;-89
2022/12/19 09:00:52;;;;;;;6.43;5.77;;;24.60;37.20;;;-142.21;30.27;112049.66;5057810;28;20209;-87
2022/12/19 09:03:19;;;;;;;6.13;5.53;;;24.60;37.10;;;-142.21;30.42;112049.66;5057933;28;20287;-87
2022/12/19 09:05:46;;;;;;;6.20;5.60;;;24.70;37.20;;;-142.21;30.56;112049.66;5057585;28;20256;-87
2022/12/19 09:08:16;;;;;;;6.27;5.67;;;24.70;37.20;;;-142.21;30.57;112049.66;5057895;28;20679;-87
2022/12/19 09:10:46;;;;;;;6.70;6.10;;;24.60;37.10;;;-142.21;30.38;112049.66;5057287;28;20303;-87
2022/12/19 09:13:13;;;;;;;6.37;5.77;;;24.70;37.10;;;-142.21;30.43;112049.66;5058654;28;20204;-88
2022/12/19 09:15:41;;;;;;;6.03;5.40;;;24.60;37.10;;;-142.21;30.27;112049.66;5057456;28;20208;-86
2022/12/19 09:18:08;;;;;;;5.87;5.30;;;24.60;37.10;;;-142.21;30.40;112049.66;5057914;28;20212;-87
2022/12/19 09:20:35;;;;;;;6.70;6.00;;;24.70;37.20;;;-142.21;30.25;112049.66;5057619;28;20255;-88
2022/12/19 09:23:03;;;;;;;6.03;5.43;;;24.70;37.20;;;-142.21;30.72;112049.66;5057663;28;20236;-86
2022/12/19 09:25:32;;;;;;;6.40;5.80;;;24.70;37.20;;;-142.21;30.35;112049.66;5057946;28;20208;-87
2022/12/19 09:27:59;;;;;;;7.03;5.80;;;24.70;37.20;;;-142.21;30.43;112049.66;5057931;28;20216;-88
2022/12/19 09:30:26;;;;;;;5.80;5.23;;;24.70;37.10;;;-142.21;30.71;112049.66;5057563;28;20689;-87
2022/12/19 09:32:55;;;;;;;6.63;5.97;;;24.70;37.10;;;-142.21;30.59;112049.66;5057417;28;20212;-87
2022/12/19 09:35:22;;;;;;;6.20;5.70;;;24.70;37.00;;;-142.21;30.38;112049.66;5058285;28;20213;-88
2022/12/19 09:37:49;;;;;;;6.43;5.83;;;24.70;37.10;;;-142.21;30.48;112049.66;5057301;28;20237;-87
2022/12/19 09:40:17;;;;;;;6.30;5.70;;;24.70;37.10;;;-142.21;30.65;112049.66;5057714;28;20657;-87
2022/12/19 09:43:07;;;;;;;6.03;5.43;;;24.70;37.00;;;-142.21;30.34;112049.66;5057365;28;20212;-86
2022/12/19 09:45:54;;;;;;;6.00;5.40;;;24.70;37.20;;;-142.21;30.50;112049.66;5058043;28;20232;-86
2022/12/19 09:48:24;;;;;;;6.30;5.70;;;24.70;37.20;;;-142.21;30.63;112049.66;5057722;28;20209;-86
2022/12/19 09:51:00;;;;;;;6.20;5.60;;;24.70;37.20;;;-142.21;30.33;112049.66;5056988;28;20600;-88
2022/12/19 09:53:37;;;;;;;6.03;5.33;;;24.70;37.10;;;-142.21;30.65;112049.66;5058039;28;20205;-87
2022/12/19 09:56:15;;;;;;;5.53;5.03;;;24.70;37.20;;;-142.21;30.56;112049.66;5058427;28;20630;-87
2022/12/19 09:58:54;;;;;;;6.03;5.43;;;24.70;37.20;;;-142.21;30.34;112049.66;5057738;28;20206;-86
2022/12/19 10:01:32;;;;;;;6.20;5.60;;;24.70;37.20;;;-142.21;30.47;112049.66;5057574;28;20189;-87
2022/12/19 10:04:10;;;;;;;6.67;5.70;;;24.70;37.20;;;-142.21;30.49;112049.66;5058273;28;20205;-87
2022/12/19 10:06:38;;;;;;;6.03;5.53;;;24.70;37.20;;;-142.21;30.19;112049.66;5058517;28;20288;-86
2022/12/19 10:09:13;;;;;;;6.03;5.43;;;24.60;37.10;;;-142.21;30.40;112049.66;5057691;28;20229;-86
2022/12/19 10:12:05;;;;;;;6.20;5.60;;;24.70;37.20;;;-142.21;30.27;112049.66;5057513;28;20203;-87
2022/12/19 10:14:51;;;;;;;5.43;4.93;;;24.70;37.20;;;-142.21;30.20;112049.66;5057201;28;20642;-87
2022/12/19 10:17:38;;;;;;;5.50;5.00;;;24.60;37.20;;;-142.21;30.61;112049.66;5057596;28;20263;-86
2022/12/19 10:20:27;;;;;;;5.80;5.20;;;24.70;37.30;;;-142.21;30.74;112049.66;5056868;28;20247;-86